Time;durP1;ratioP1;P1;durP2;ratioP2;P2;SDS_P1;SDS_P2;PMS_P1;PMS_P2;Temp;Humidity;BMP_temperature;BMP_pressure;BME280_temperature;BME280_humidity;BME280_pressure;Samples;Min_cycle;Max_cycle;Signal;HPM_P1;HPM_P2
2022/08/17 00:00:40;;;;;;;;;;;;;;;24.42;82.06;153797.53;1734325;82;20250;-59
2022/08/17 00:03:09;;;;;;;;;;;;;;;24.36;82.59;153780.50;1734383;82;20278;-60
2022/08/17 00:05:39;;;;;;;;;;;;;;;24.33;82.92;153773.97;1746887;81;20182;-59
2022/08/17 00:08:06;;;;;;;;;;;;;;;24.29;83.13;153764.78;1761917;81;20200;-59
2022/08/17 00:10:34;;;;;;;;;;;;;;;24.27;83.39;153759.56;1765451;81;21250;-76
2022/08/17 00:13:10;;;;;;;;;;;;;;;24.23;83.67;153747.75;1735597;81;20500;-76
2022/08/17 00:15:37;;;;;;;;;;;;;;;24.21;83.99;153742.53;1734780;82;20199;-77
2022/08/17 00:18:03;;;;;;;;;;;;;;;24.18;84.11;153735.95;1734495;82;20235;-59
2022/08/17 00:20:30;;;;;;;;;;;;;;;24.17;84.44;153733.34;1734921;82;20104;-77
2022/08/17 00:23:08;;;;;;;;;;;;;;;24.19;84.56;153738.58;1727252;82;20817;-77
2022/08/17 00:25:35;;;;;;;;;;;;;;;24.19;84.60;153738.58;1726483;83;20389;-77
2022/08/17 00:28:01;;;;;;;;;;;;;;;24.15;84.93;153728.11;1726445;83;21044;-76
2022/08/17 00:30:28;;;;;;;;;;;;;;;24.17;85.15;153733.34;1727207;83;20138;-77
2022/08/17 00:32:55;;;;;;;;;;;;;;;24.19;85.49;153738.58;1727037;83;20142;-77
2022/08/17 00:35:22;;;;;;;;;;;;;;;24.20;85.48;153741.19;1726628;83;21259;-60
2022/08/17 00:37:50;;;;;;;;;;;;;;;24.19;85.64;153738.58;1726243;83;20179;-60
2022/08/17 00:40:17;;;;;;;;;;;;;;;24.18;85.65;153735.95;1726594;83;20203;-77
2022/08/17 00:42:44;;;;;;;;;;;;;;;24.15;85.74;153728.11;1726710;83;20196;-61
2022/08/17 00:45:12;;;;;;;;;;;;;;;24.17;85.92;153733.34;1726549;83;20156;-78
2022/08/17 00:47:39;;;;;;;;;;;;;;;24.25;86.04;153754.33;1726649;83;21248;-75
2022/08/17 00:50:08;;;;;;;;;;;;;;;24.34;85.57;153776.59;1726896;83;20120;-78
2022/08/17 00:52:38;;;;;;;;;;;;;;;24.36;85.28;153781.81;1726764;83;20351;-60
2022/08/17 00:55:06;;;;;;;;;;;;;;;24.41;85.11;153793.56;1726221;83;20200;-60
2022/08/17 00:57:35;;;;;;;;;;;;;;;24.44;84.97;153801.47;1726991;83;20480;-77
2022/08/17 01:00:09;;;;;;;;;;;;;;;24.45;84.67;153804.09;1726890;83;21100;-77
2022/08/17 01:02:38;;;;;;;;;;;;;;;24.45;84.95;153804.09;1726090;83;20191;-60
2022/08/17 01:05:06;;;;;;;;;;;;;;;24.45;85.02;153804.09;1735233;81;20153;-60
2022/08/17 01:07:34;;;;;;;;;;;;;;;24.45;85.16;153804.09;1770736;81;20177;-60
2022/08/17 01:10:01;;;;;;;;;;;;;;;24.48;85.29;153811.94;1770921;81;20459;-60
2022/08/17 01:12:30;;;;;;;;;;;;;;;24.51;85.09;153819.78;1722859;81;21150;-78
2022/08/17 01:14:58;;;;;;;;;;;;;;;24.51;84.75;153818.45;1706764;84;20141;-77
2022/08/17 01:17:26;;;;;;;;;;;;;;;24.44;84.80;153801.47;1706612;84;20167;-78
2022/08/17 01:19:52;;;;;;;;;;;;;;;24.41;84.93;153793.56;1724847;83;20679;-77
2022/08/17 01:22:21;;;;;;;;;;;;;;;24.32;84.93;153772.64;1726677;82;20204;-78
2022/08/17 01:24:51;;;;;;;;;;;;;;;24.26;85.59;153755.61;1726896;82;21259;-60
2022/08/17 01:27:19;;;;;;;;;;;;;;;24.23;86.05;153749.09;1726514;82;37607;-60
2022/08/17 01:29:49;;;;;;;;;;;;;;;24.23;86.19;153749.09;1727084;83;20207;-78
2022/08/17 01:32:17;;;;;;;;;;;;;;;24.17;86.15;153733.34;1726789;82;20188;-78
2022/08/17 01:34:44;;;;;;;;;;;;;;;24.09;86.36;153713.69;1726837;82;20302;-77
2022/08/17 01:37:12;;;;;;;;;;;;;;;24.03;87.07;153698.00;1726583;82;21137;-78
2022/08/17 01:39:41;;;;;;;;;;;;;;;24.08;87.68;153709.80;1727114;82;20177;-78
2022/08/17 01:42:26;;;;;;;;;;;;;;;24.09;87.62;153712.41;1726733;83;20204;-78
2022/08/17 01:44:55;;;;;;;;;;;;;;;24.09;87.72;153712.41;1727113;82;20184;-77
2022/08/17 01:47:22;;;;;;;;;;;;;;;24.07;87.51;153707.19;1726645;83;20144;-59
2022/08/17 01:49:49;;;;;;;;;;;;;;;23.95;87.42;153678.31;1726886;83;22761;-78
2022/08/17 01:52:16;;;;;;;;;;;;;;;23.79;87.97;153636.45;1726818;82;20219;-77
2022/08/17 01:54:44;;;;;;;;;;;;;;;23.69;88.86;153612.86;1726951;82;20425;-77
2022/08/17 01:57:11;;;;;;;;;;;;;;;23.66;89.35;153605.02;1726900;83;20172;-77
2022/08/17 01:59:37;;;;;;;;;;;;;;;23.60;89.52;153590.59;1726729;83;20200;-77
2022/08/17 02:02:04;;;;;;;;;;;;;;;23.51;89.90;153565.72;1726724;83;21771;-78
2022/08/17 02:04:32;;;;;;;;;;;;;;;23.42;90.41;153543.47;1727068;83;20196;-77
2022/08/17 02:06:59;;;;;;;;;;;;;;;23.36;90.76;153527.78;1756489;81;20436;-60
2022/08/17 02:09:26;;;;;;;;;;;;;;;23.28;91.30;153508.14;1757082;81;20416;-60
2022/08/17 02:11:54;;;;;;;;;;;;;;;23.22;91.84;153492.41;1725431;81;20141;-60
2022/08/17 02:14:22;;;;;;;;;;;;;;;23.14;92.52;153474.11;1694167;84;21304;-60
2022/08/17 02:16:49;;;;;;;;;;;;;;;23.04;92.79;153447.91;1694409;84;20188;-77
2022/08/17 02:19:15;;;;;;;;;;;;;;;22.95;93.48;153424.38;1714924;83;20417;-60
2022/08/17 02:21:43;;;;;;;;;;;;;;;22.87;94.26;153406.02;1728673;82;20574;-60
2022/08/17 02:24:14;;;;;;;;;;;;;;;22.87;94.92;153406.02;1740494;82;20424;-60
2022/08/17 02:26:40;;;;;;;;;;;;;;;22.85;95.14;153400.80;1740384;82;23097;-61
2022/08/17 02:29:07;;;;;;;;;;;;;;;22.83;95.43;153394.28;1740152;82;20183;-60
2022/08/17 02:31:34;;;;;;;;;;;;;;;22.84;95.57;153396.91;1740508;82;20167;-60
2022/08/17 02:34:02;;;;;;;;;;;;;;;22.86;95.73;153403.41;1740256;82;20208;-60
2022/08/17 02:36:29;;;;;;;;;;;;;;;22.92;95.61;153416.53;1740732;82;20147;-61
2022/08/17 02:38:57;;;;;;;;;;;;;;;22.95;95.10;153424.38;1740309;82;21240;-60
2022/08/17 02:41:24;;;;;;;;;;;;;;;22.90;94.87;153412.59;1740146;82;21067;-61
2022/08/17 02:43:51;;;;;;;;;;;;;;;22.87;95.03;153406.02;1740250;82;20186;-61
2022/08/17 02:46:18;;;;;;;;;;;;;;;22.90;95.21;153412.59;1740207;82;20176;-78
2022/08/17 02:48:45;;;;;;;;;;;;;;;22.96;94.88;153426.98;1740588;82;20199;-76
2022/08/17 02:51:11;;;;;;;;;;;;;;;22.95;94.40;153424.38;1740711;82;20742;-60
2022/08/17 02:53:38;;;;;;;;;;;;;;;22.89;94.48;153411.30;1740272;82;20501;-61
2022/08/17 02:56:05;;;;;;;;;;;;;;;22.84;94.84;153398.19;1740129;82;20186;-61
2022/08/17 02:58:32;;;;;;;;;;;;;;;22.84;95.25;153398.19;1740231;82;21079;-60
2022/08/17 03:00:59;;;;;;;;;;;;;;;22.85;95.41;153400.80;1740523;82;20171;-60
2022/08/17 03:03:25;;;;;;;;;;;;;;;22.88;95.77;153407.36;1740309;82;21252;-60
2022/08/17 03:05:52;;;;;;;;;;;;;;;22.88;95.48;153407.36;1737205;82;20208;-60
2022/08/17 03:08:19;;;;;;;;;;;;;;;22.79;95.70;153385.11;1734504;81;20420;-60
2022/08/17 03:10:45;;;;;;;;;;;;;;;22.72;96.10;153366.81;1734600;82;20811;-60
2022/08/17 03:13:13;;;;;;;;;;;;;;;22.67;96.57;153353.73;1740414;82;20135;-59
2022/08/17 03:15:47;;;;;;;;;;;;;;;22.58;96.79;153332.78;1740444;82;21267;-72
2022/08/17 03:18:12;;;;;;;;;;;;;;;22.51;97.35;153314.48;1732772;82;20537;-75
2022/08/17 03:20:39;;;;;;;;;;;;;;;22.44;97.60;153297.42;1705996;84;20149;-75
2022/08/17 03:23:06;;;;;;;;;;;;;;;22.44;98.30;153296.14;1725571;82;20223;-75
2022/08/17 03:25:36;;;;;;;;;;;;;;;22.48;98.30;153306.64;1739353;82;20172;-75
2022/08/17 03:28:03;;;;;;;;;;;;;;;22.49;97.97;153309.25;1751910;82;22234;-75
2022/08/17 03:30:30;;;;;;;;;;;;;;;22.44;97.83;153297.42;1740543;82;20471;-76
2022/08/17 03:32:58;;;;;;;;;;;;;;;22.38;97.91;153281.73;1740558;82;20219;-75
2022/08/17 03:35:28;;;;;;;;;;;;;;;22.31;98.19;153264.72;1738790;82;20485;-74
2022/08/17 03:37:54;;;;;;;;;;;;;;;22.30;98.77;153260.78;1739336;81;20193;-76
2022/08/17 03:40:21;;;;;;;;;;;;;;;22.35;99.15;153272.56;1752072;82;22822;-60
2022/08/17 03:42:47;;;;;;;;;;;;;;;22.40;98.89;153286.97;1751594;82;20177;-60
2022/08/17 03:56:40;;;;;;;;;;;;;;;22.45;99.01;153298.75;1751796;81;20546;-60
2022/08/17 03:58:48;;;;;;;;;;;;;;;23.06;95.06;153453.13;1740813;82;20219;-76
2022/08/17 04:01:16;;;;;;;;;;;;;;;23.08;94.15;153458.36;1739135;82;20175;-77
2022/08/17 04:03:43;;;;;;;;;;;;;;;23.10;93.76;153463.64;1743733;82;21052;-61
2022/08/17 04:06:10;;;;;;;;;;;;;;;23.18;93.36;153483.22;1740597;82;22024;-61
2022/08/17 04:08:37;;;;;;;;;;;;;;;23.27;93.04;153505.53;1741154;82;20172;-77
2022/08/17 04:11:04;;;;;;;;;;;;;;;23.42;92.78;153544.81;1741332;82;20175;-76
2022/08/17 04:13:31;;;;;;;;;;;;;;;23.57;92.06;153582.75;1740359;82;20536;-60
2022/08/17 04:15:58;;;;;;;;;;;;;;;23.73;91.23;153623.31;1751930;81;20186;-60
2022/08/17 04:18:27;;;;;;;;;;;;;;;23.86;90.67;153656.03;1730097;82;21219;-60
2022/08/17 04:20:53;;;;;;;;;;;;;;;23.97;89.83;153683.53;1705586;84;20152;-75
2022/08/17 04:23:20;;;;;;;;;;;;;;;24.12;88.97;153720.25;1749414;81;20130;-61
2022/08/17 04:25:48;;;;;;;;;;;;;;;24.22;88.11;153745.14;1744817;82;20186;-74
2022/08/17 04:28:16;;;;;;;;;;;;;;;24.29;87.29;153764.78;1729652;83;20200;-74
2022/08/17 04:30:43;;;;;;;;;;;;;;;24.44;86.54;153801.47;1729839;82;21197;-75
2022/08/17 04:33:19;;;;;;;;;;;;;;;24.58;85.73;153838.11;1728999;82;20203;-60
2022/08/17 04:35:47;;;;;;;;;;;;;;;24.72;84.46;153872.19;1729191;82;20181;-59
2022/08/17 04:38:17;;;;;;;;;;;;;;;24.87;82.51;153911.53;1729224;83;20191;-77
2022/08/17 04:43:30;;;;;;;;;;;;;;;25.17;80.52;153987.50;1728852;82;21162;-61
2022/08/17 04:45:59;;;;;;;;;;;;;;;25.35;79.42;154032.06;1729016;83;20167;-59
2022/08/17 04:48:33;;;;;;;;;;;;;;;25.51;78.30;154072.72;1728464;82;20144;-59
2022/08/17 04:51:00;;;;;;;;;;;;;;;25.65;77.55;154108.09;1729287;82;20484;-74
2022/08/17 04:53:26;;;;;;;;;;;;;;;25.79;76.58;154142.19;1729499;82;20153;-74
2022/08/17 04:55:53;;;;;;;;;;;;;;;25.81;75.83;154147.42;1729355;83;21290;-73
2022/08/17 04:58:20;;;;;;;;;;;;;;;25.82;75.54;154150.03;1729584;82;20136;-76
2022/08/17 05:00:47;;;;;;;;;;;;;;;25.89;75.60;154168.37;1729215;83;20248;-59
2022/08/17 05:03:13;;;;;;;;;;;;;;;26.02;75.58;154201.14;1728611;83;20567;-59
2022/08/17 05:05:42;;;;;;;;;;;;;;;26.13;75.17;154228.66;1742123;81;20182;-59
2022/08/17 05:08:09;;;;;;;;;;;;;;;26.28;74.77;154266.72;1759018;81;22160;-59
2022/08/17 05:10:37;;;;;;;;;;;;;;;26.43;74.41;154306.06;1758830;81;20161;-61
2022/08/17 05:13:06;;;;;;;;;;;;;;;26.59;73.77;154346.70;1694795;81;20493;-60
2022/08/17 05:15:37;;;;;;;;;;;;;;;26.75;73.41;154386.05;1681318;85;20085;-60
2022/08/17 05:18:04;;;;;;;;;;;;;;;26.91;72.85;154425.45;1699030;83;20485;-60
2022/08/17 05:20:32;;;;;;;;;;;;;;;27.07;72.17;154467.39;1728687;83;22888;-60
2022/08/17 05:23:00;;;;;;;;;;;;;;;27.22;71.87;154505.47;1728933;82;20369;-77
2022/08/17 05:25:28;;;;;;;;;;;;;;;27.38;71.29;154544.78;1729082;83;20132;-76
2022/08/17 05:27:55;;;;;;;;;;;;;;;27.52;71.10;154581.58;1729383;83;20487;-77
2022/08/17 05:30:22;;;;;;;;;;;;;;;27.72;70.54;154631.44;1747323;82;20180;-65
2022/08/17 05:32:55;;;;;;;;;;;;;;;27.90;69.73;154677.34;1747442;81;21143;-60
2022/08/17 05:35:22;;;;;;;;;;;;;;;28.05;68.89;154714.09;1746546;81;20177;-60
2022/08/17 05:37:49;;;;;;;;;;;;;;;28.21;68.02;154754.81;1747386;81;20444;-60
2022/08/17 05:40:16;;;;;;;;;;;;;;;28.34;66.67;154787.62;1746965;81;21292;-60
2022/08/17 05:42:43;;;;;;;;;;;;;;;28.39;65.98;154802.06;1747723;82;20196;-77
2022/08/17 05:45:10;;;;;;;;;;;;;;;28.50;65.74;154828.30;1747543;82;21291;-77
2022/08/17 05:47:37;;;;;;;;;;;;;;;28.62;66.02;154859.81;1747901;81;20180;-78
2022/08/17 05:50:07;;;;;;;;;;;;;;;28.73;66.33;154887.39;1748199;81;20502;-77
2022/08/17 05:52:40;;;;;;;;;;;;;;;28.87;66.32;154922.88;1748014;81;20173;-77
2022/08/17 05:55:28;;;;;;;;;;;;;;;29.07;65.88;154974.11;1748014;82;20165;-78
2022/08/17 05:58:11;;;;;;;;;;;;;;;29.26;65.55;155021.33;1705817;82;20606;-61
2022/08/17 06:00:49;;;;;;;;;;;;;;;29.45;65.09;155071.28;1707310;83;20155;-61
2022/08/17 06:03:38;;;;;;;;;;;;;;;29.65;64.77;155121.19;1737187;82;20189;-59
2022/08/17 06:06:32;;;;;;;;;;;;;;;29.85;64.79;155171.11;1727249;81;20202;-60
2022/08/17 06:09:30;;;;;;;;;;;;;;;30.15;64.48;155248.67;1740678;82;20179;-60
2022/08/17 06:12:20;;;;;;;;;;;;;;;30.45;63.16;155323.56;1740979;80;21139;-60
2022/08/17 06:15:09;;;;;;;;;;;;;;;30.70;62.39;155386.67;1742985;81;20181;-78
2022/08/17 06:17:37;;;;;;;;;;;;;;;30.93;61.58;155444.50;1739564;80;20093;-60
2022/08/17 06:20:09;;;;;;;;;;;;;;;31.13;61.23;155497.06;1750695;80;20526;-59
2022/08/17 06:22:39;;;;;;;;;;;;;;;31.29;60.53;155536.56;1744114;80;20221;-60
2022/08/17 06:25:25;;;;;;;;;;;;;;;31.55;59.96;155602.28;1738710;80;21460;-59
2022/08/17 06:27:57;;;;;;;;;;;;;;;31.74;59.20;155650.91;1739360;81;20183;-61
2022/08/17 06:30:25;;;;;;;;;;;;;;;31.75;58.06;155653.53;1731216;80;20966;-59
2022/08/17 06:32:58;;;;;;;;;;;;;;;31.73;57.93;155649.63;1738369;81;20401;-59
2022/08/17 06:35:41;;;;;;;;;;;;;;;31.77;58.03;155658.84;1740285;82;20217;-60
2022/08/17 06:38:31;;;;;;;;;;;;;;;31.87;57.90;155683.83;1735731;82;20711;-60
2022/08/17 06:41:02;;;;;;;;;;;;;;;31.81;57.94;155669.34;1740706;81;20388;-60
2022/08/17 06:43:32;;;;;;;;;;;;;;;31.73;58.77;155648.28;1734035;82;20218;-59
2022/08/17 06:46:10;;;;;;;;;;;;;;;31.76;59.28;155656.16;1742746;82;20194;-60
2022/08/17 06:48:48;;;;;;;;;;;;;;;31.84;59.02;155675.94;1711935;83;20332;-59
2022/08/17 06:51:18;;;;;;;;;;;;;;;31.89;58.39;155687.80;1709644;83;22660;-76
2022/08/17 06:53:47;;;;;;;;;;;;;;;31.78;58.19;155660.19;1737961;82;20134;-76
2022/08/17 06:56:21;;;;;;;;;;;;;;;31.79;58.36;155662.81;1733409;82;20221;-75
2022/08/17 06:58:48;;;;;;;;;;;;;;;31.85;58.16;155678.56;1730322;82;20134;-76
2022/08/17 07:01:18;;;;;;;;;;;;;;;31.90;57.88;155691.70;1732439;81;20174;-59
2022/08/17 07:03:54;;;;;;;;;;;;;;;31.94;57.82;155702.22;1727486;81;21317;-60
2022/08/17 07:06:29;;;;;;;;;;;;;;;32.05;57.57;155728.53;1724249;81;20230;-60
2022/08/17 07:09:08;;;;;;;;;;;;;;;31.98;57.29;155712.78;1679047;82;20184;-60
2022/08/17 07:11:49;;;;;;;;;;;;;;;31.82;57.40;155670.69;1728955;82;20149;-60
2022/08/17 07:14:41;;;;;;;;;;;;;;;31.63;57.21;155623.31;1727620;81;20176;-59
2022/08/17 07:17:10;;;;;;;;;;;;;;;31.19;58.50;155510.20;1731993;82;21959;-58
2022/08/17 07:19:40;;;;;;;;;;;;;;;30.85;60.33;155426.13;1732847;82;20126;-59
2022/08/17 07:22:16;;;;;;;;;;;;;;;30.55;61.76;155349.81;1724570;82;20461;-60
2022/08/17 07:24:58;;;;;;;;;;;;;;;30.52;62.86;155340.66;1719822;82;20180;-60
2022/08/17 07:27:34;;;;;;;;;;;;;;;30.67;62.85;155378.80;1732503;82;20226;-60
2022/08/17 07:30:06;;;;;;;;;;;;;;;30.71;62.62;155389.30;1734881;82;21208;-59
2022/08/17 07:32:35;;;;;;;;;;;;;;;30.62;62.51;155366.97;1730633;82;20241;-59
2022/08/17 07:35:14;;;;;;;;;;;;;;;30.62;62.58;155365.63;1724008;82;20520;-59
2022/08/17 07:37:51;;;;;;;;;;;;;;;30.63;62.43;155368.30;1722067;82;20271;-61
2022/08/17 07:40:17;;;;;;;;;;;;;;;30.82;61.91;155418.19;1727388;82;20345;-61
2022/08/17 07:43:01;;;;;;;;;;;;;;;30.94;61.46;155448.41;1725211;82;20643;-59
2022/08/17 07:48:20;;;;;;;;;;;;;;;30.94;61.31;155447.13;1728871;82;20197;-59
2022/08/17 07:50:47;;;;;;;;;;;;;;;31.07;61.09;155481.31;1727175;81;20180;-60
2022/08/17 07:53:21;;;;;;;;;;;;;;;31.03;60.97;155470.75;1727477;81;20540;-60
2022/08/17 07:55:49;;;;;;;;;;;;;;;30.96;61.25;155452.38;1729508;81;21838;-59
2022/08/17 07:58:17;;;;;;;;;;;;;;;30.95;61.52;155449.75;1729690;82;20183;-60
2022/08/17 08:00:45;;;;;;;;;;;;;;;30.98;61.54;155458.97;1726632;82;20315;-61
2022/08/17 08:03:15;;;;;;;;;;;;;;;31.13;61.29;155495.73;1722062;82;20177;-60
2022/08/17 08:05:52;;;;;;;;;;;;;;;31.33;60.75;155547.08;1727811;82;21260;-59
2022/08/17 08:08:31;;;;;;;;;;;;;;;31.55;60.19;155603.56;1722409;82;21095;-59
2022/08/17 08:11:04;;;;;;;;;;;;;;;31.75;59.42;155653.53;1722275;82;20210;-61
2022/08/17 08:13:31;;;;;;;;;;;;;;;31.78;58.73;155661.47;1727975;82;20144;-58
2022/08/17 08:16:11;;;;;;;;;;;;;;;31.68;59.22;155635.16;1727132;82;20205;-60
2022/08/17 08:18:42;;;;;;;;;;;;;;;31.71;59.54;155644.31;1714703;82;20127;-60
2022/08/17 08:21:45;;;;;;;;;;;;;;;31.85;59.13;155678.56;1719234;82;21214;-60
2022/08/17 08:24:21;;;;;;;;;;;;;;;32.01;58.87;155720.66;1728252;81;20161;-60
2022/08/17 08:26:57;;;;;;;;;;;;;;;32.10;58.44;155741.69;1730722;81;20209;-60
2022/08/17 08:29:42;;;;;;;;;;;;;;;32.12;58.26;155746.94;1728416;81;20221;-59
2022/08/17 08:32:19;;;;;;;;;;;;;;;32.08;58.65;155736.42;1723458;82;20178;-60
2022/08/17 08:35:05;;;;;;;;;;;;;;;32.13;58.78;155750.91;1732293;82;21254;-61
2022/08/17 08:37:59;;;;;;;;;;;;;;;32.22;58.95;155773.27;1725533;82;20220;-61
2022/08/17 08:40:48;;;;;;;;;;;;;;;32.28;58.45;155789.03;1732344;81;20474;-60
2022/08/17 08:43:31;;;;;;;;;;;;;;;32.13;59.23;155749.56;1730358;81;20514;-61
2022/08/17 08:46:07;;;;;;;;;;;;;;;31.72;59.79;155645.66;1735263;82;20157;-60
2022/08/17 08:48:55;;;;;;;;;;;;;;;31.25;61.60;155527.34;1730405;82;21139;-60
2022/08/17 08:51:46;;;;;;;;;;;;;;;31.06;62.59;155478.69;1724110;82;20162;-61
2022/08/17 08:54:35;;;;;;;;;;;;;;;30.91;63.44;155440.53;1729000;82;20225;-62
2022/08/17 08:57:20;;;;;;;;;;;;;;;30.76;64.40;155402.44;1729632;82;20193;-61
2022/08/17 09:00:02;;;;;;;;;;;;;;;30.63;65.22;155368.30;1734959;81;20159;-61
2022/08/17 09:02:52;;;;;;;;;;;;;;;30.59;65.92;155360.31;1731931;81;21143;-59
2022/08/17 09:05:39;;;;;;;;;;;;;;;30.57;66.30;155355.06;1732838;82;20149;-59
2022/08/17 09:08:16;;;;;;;;;;;;;;;30.37;67.00;155302.50;1733209;81;20193;-61
2022/08/17 09:11:09;;;;;;;;;;;;;;;30.27;67.07;155277.55;1733545;82;20149;-59
2022/08/17 09:13:55;;;;;;;;;;;;;;;30.20;67.60;155260.50;1692353;83;20431;-61
2022/08/17 09:16:28;;;;;;;;;;;;;;;30.14;68.85;155244.70;1704441;82;21258;-60
2022/08/17 09:18:55;;;;;;;;;;;;;;;30.10;71.65;155235.55;1711787;82;20181;-61
2022/08/17 09:21:44;;;;;;;;;;;;;;;29.82;73.20;155164.53;1706994;82;20421;-61
2022/08/17 09:24:14;;;;;;;;;;;;;;;29.62;74.23;155113.31;1732282;81;20269;-61
2022/08/17 09:27:03;;;;;;;;;;;;;;;29.50;75.43;155081.78;1745557;82;20226;-60
2022/08/17 09:29:33;;;;;;;;;;;;;;;29.47;76.18;155073.91;1731688;82;21143;-60
2022/08/17 09:32:02;;;;;;;;;;;;;;;29.43;76.48;155066.03;1736585;82;20193;-60
2022/08/17 09:34:45;;;;;;;;;;;;;;;29.44;77.50;155068.66;1741456;80;20134;-60
2022/08/17 09:37:30;;;;;;;;;;;;;;;29.42;76.98;155063.41;1743196;81;20214;-59
2022/08/17 09:40:13;;;;;;;;;;;;;;;29.37;77.24;155050.25;1746880;82;20206;-60
2022/08/17 09:42:53;;;;;;;;;;;;;;;29.30;77.46;155031.88;1719390;82;21252;-60
2022/08/17 09:45:33;;;;;;;;;;;;;;;29.34;77.99;155042.38;1725906;82;20176;-60
2022/08/17 09:48:37;;;;;;;;;;;;;;;29.37;77.37;155050.25;1727981;82;20177;-59
2022/08/17 09:51:24;;;;;;;;;;;;;;;29.35;77.61;155043.66;1725559;81;20214;-59
2022/08/17 09:53:51;;;;;;;;;;;;;;;29.35;77.20;155045.00;1732060;82;20118;-60
2022/08/17 09:56:27;;;;;;;;;;;;;;;29.38;77.28;155052.88;1727476;82;22427;-59
2022/08/17 09:59:10;;;;;;;;;;;;;;;29.40;77.34;155058.11;1733493;82;20267;-59
2022/08/17 10:01:44;;;;;;;;;;;;;;;29.42;77.01;155062.12;1689846;82;20165;-60
2022/08/17 10:04:23;;;;;;;;;;;;;;;29.47;76.89;155073.91;1737368;81;20430;-73
2022/08/17 10:06:55;;;;;;;;;;;;;;;29.51;76.37;155084.41;1745318;80;20486;-74
2022/08/17 10:09:32;;;;;;;;;;;;;;;29.52;75.15;155087.08;1742449;82;21205;-74
2022/08/17 10:12:19;;;;;;;;;;;;;;;29.59;75.10;155106.73;1744942;81;20232;-74
2022/08/17 10:14:58;;;;;;;;;;;;;;;29.72;75.34;155139.56;1722187;82;20131;-60
2022/08/17 10:17:55;;;;;;;;;;;;;;;29.88;76.00;155180.33;1704333;81;20131;-60
2022/08/17 10:20:32;;;;;;;;;;;;;;;30.06;74.96;155225.00;1732765;82;20673;-60
2022/08/17 10:28:48;;;;;;;;;;;;;;;30.43;72.31;155319.59;1737719;81;20326;-61
2022/08/17 10:31:23;;;;;;;;;;;;;;;30.50;70.91;155336.69;1735753;81;20198;-76
2022/08/17 10:34:17;;;;;;;;;;;;;;;30.59;70.11;155360.31;1743903;82;20202;-73
2022/08/17 10:36:59;;;;;;;;;;;;;;;30.68;70.11;155381.42;1742449;82;21119;-74
2022/08/17 10:39:35;;;;;;;;;;;;;;;30.79;69.70;155410.31;1702109;82;20181;-59
2022/08/17 10:42:06;;;;;;;;;;;;;;;30.82;69.66;155416.89;1732984;82;20173;-59
2022/08/17 10:44:55;;;;;;;;;;;;;;;30.87;70.06;155431.38;1739655;82;20481;-59
2022/08/17 10:47:20;;;;;;;;;;;;;;;30.93;69.09;155445.78;1733983;81;20163;-59
2022/08/17 10:49:48;;;;;;;;;;;;;;;31.02;68.36;155468.13;1736773;82;21791;-59
2022/08/17 10:52:22;;;;;;;;;;;;;;;31.09;68.42;155486.56;1731500;82;20490;-60
2022/08/17 10:54:59;;;;;;;;;;;;;;;31.20;68.27;155512.88;1738410;82;20195;-75
2022/08/17 10:57:33;;;;;;;;;;;;;;;31.30;67.42;155539.19;1738393;82;20415;-74
2022/08/17 11:00:14;;;;;;;;;;;;;;;31.31;66.85;155541.81;1731236;82;20239;-75
2022/08/17 11:02:48;;;;;;;;;;;;;;;31.33;66.35;155547.08;1733994;82;21114;-75
2022/08/17 11:05:42;;;;;;;;;;;;;;;31.30;66.16;155539.19;1732223;82;20266;-60
2022/08/17 11:08:32;;;;;;;;;;;;;;;31.27;66.43;155532.59;1739179;82;20186;-60
2022/08/17 11:11:22;;;;;;;;;;;;;;;31.28;66.48;155533.89;1723798;81;20234;-60
2022/08/17 11:14:16;;;;;;;;;;;;;;;31.28;66.13;155533.89;1737997;81;20536;-59
2022/08/17 11:17:03;;;;;;;;;;;;;;;31.26;65.60;155529.97;1725815;82;21248;-59
2022/08/17 11:19:49;;;;;;;;;;;;;;;31.09;65.67;155486.56;1732341;82;20170;-59
2022/08/17 11:22:34;;;;;;;;;;;;;;;30.85;65.96;155426.13;1732277;82;20255;-59
2022/08/17 11:25:21;;;;;;;;;;;;;;;30.65;66.83;155373.55;1732584;81;20389;-60
2022/08/17 11:27:52;;;;;;;;;;;;;;;30.46;67.70;155326.19;1729278;82;20143;-60
2022/08/17 11:30:45;;;;;;;;;;;;;;;30.37;68.49;155302.50;1732983;82;21249;-74
2022/08/17 11:33:35;;;;;;;;;;;;;;;30.44;68.29;155320.94;1720706;82;20234;-60
2022/08/17 11:36:18;;;;;;;;;;;;;;;30.56;67.73;155352.44;1729838;82;20175;-59
2022/08/17 11:38:49;;;;;;;;;;;;;;;30.70;66.70;155387.97;1732427;82;20448;-60
2022/08/17 11:41:40;;;;;;;;;;;;;;;30.80;65.77;155412.94;1720893;82;20783;-59
2022/08/17 11:44:31;;;;;;;;;;;;;;;30.87;65.75;155431.38;1707479;83;21250;-60
2022/08/17 11:53:05;;;;;;;;;;;;;;;31.12;64.01;155493.11;1747296;81;20174;-75
2022/08/17 11:55:36;;;;;;;;;;;;;;;31.21;63.87;155515.50;1735528;81;20185;-74
2022/08/17 11:58:05;;;;;;;;;;;;;;;31.30;63.88;155539.19;1732947;81;21135;-75
2022/08/17 12:00:48;;;;;;;;;;;;;;;31.39;62.93;155561.50;1738958;81;20450;-74
2022/08/17 12:03:25;;;;;;;;;;;;;;;31.40;62.22;155565.47;1727499;81;20208;-74
2022/08/17 12:06:01;;;;;;;;;;;;;;;31.42;62.18;155569.42;1728196;81;20149;-73
2022/08/17 12:08:31;;;;;;;;;;;;;;;31.34;62.33;155548.36;1713222;83;20171;-72
2022/08/17 12:11:09;;;;;;;;;;;;;;;31.09;62.94;155486.56;1709332;82;22120;-72
2022/08/17 12:13:45;;;;;;;;;;;;;;;30.92;62.96;155441.88;1745912;81;20167;-73
2022/08/17 12:16:16;;;;;;;;;;;;;;;30.78;63.25;155406.39;1744886;80;20200;-74
2022/08/17 12:18:52;;;;;;;;;;;;;;;30.75;63.98;155399.81;1745904;80;20155;-74
2022/08/17 12:21:22;;;;;;;;;;;;;;;30.66;58.75;155376.17;1744736;82;20182;-74
2022/08/17 12:24:11;;;;;;;;;;;;;;;30.06;56.53;155223.70;1743255;82;21174;-74
2022/08/17 12:26:42;;;;;;;;;;;;;;;29.61;56.83;155110.70;1722960;82;20225;-74
2022/08/17 12:29:13;;;;;;;;;;;;;;;28.82;57.67;154911.05;1712419;83;20206;-73
2022/08/17 12:31:46;;;;;;;;;;;;;;;28.49;60.34;154825.67;1743589;81;20213;-75
2022/08/17 12:34:21;;;;;;;;;;;;;;;28.18;59.20;154748.23;1739512;80;20197;-75
2022/08/17 12:36:49;;;;;;;;;;;;;;;27.66;60.06;154616.98;1746424;81;21146;-76
2022/08/17 12:39:20;;;;;;;;;;;;;;;27.10;62.43;154473.97;1748207;81;20450;-76
2022/08/17 12:41:49;;;;;;;;;;;;;;;26.70;63.38;154374.23;1746247;81;20179;-76
2022/08/17 12:44:22;;;;;;;;;;;;;;;26.50;64.32;154323.12;1743947;81;20442;-76
2022/08/17 12:46:52;;;;;;;;;;;;;;;26.54;64.72;154333.59;1712705;82;20088;-76
2022/08/17 12:49:28;;;;;;;;;;;;;;;26.71;64.82;154375.56;1713757;83;21122;-75
2022/08/17 12:52:15;;;;;;;;;;;;;;;26.84;64.87;154409.64;1747899;82;20185;-75
2022/08/17 12:54:49;;;;;;;;;;;;;;;27.07;64.71;154467.39;1749443;81;20200;-75
2022/08/17 12:57:40;;;;;;;;;;;;;;;27.24;64.31;154509.38;1747243;81;20173;-75
2022/08/17 13:00:14;;;;;;;;;;;;;;;27.34;63.55;154535.63;1752288;81;20191;-75
2022/08/17 13:02:45;;;;;;;;;;;;;;;27.35;62.94;154538.25;1753724;81;21140;-75
2022/08/17 13:05:27;;;;;;;;;;;;;;;27.37;62.70;154543.50;1753274;80;20164;-75
2022/08/17 13:07:56;;;;;;;;;;;;;;;27.31;62.72;154527.77;1726222;81;20184;-75
2022/08/17 13:10:27;;;;;;;;;;;;;;;27.29;62.97;154522.47;1739897;81;20217;-74
2022/08/17 13:12:54;;;;;;;;;;;;;;;27.30;63.25;154526.44;1735660;82;20181;-75
2022/08/17 13:15:24;;;;;;;;;;;;;;;27.44;62.99;154561.84;1739446;82;21240;-74
2022/08/17 13:18:03;;;;;;;;;;;;;;;27.50;62.52;154574.94;1738604;82;20366;-75
2022/08/17 13:20:30;;;;;;;;;;;;;;;27.61;62.42;154603.88;1736187;82;20818;-74
2022/08/17 13:23:00;;;;;;;;;;;;;;;27.81;61.47;154655.03;1742597;82;20424;-74
2022/08/17 13:25:33;;;;;;;;;;;;;;;27.97;60.66;154695.75;1744464;81;20458;-74
2022/08/17 13:27:59;;;;;;;;;;;;;;;28.04;59.92;154712.77;1765076;80;21242;-74
2022/08/17 13:30:31;;;;;;;;;;;;;;;28.12;59.36;154733.78;1768288;81;20502;-74
2022/08/17 13:33:37;;;;;;;;;;;;;;;28.19;58.28;154750.91;1725435;81;20127;-75
2022/08/17 13:36:09;;;;;;;;;;;;;;;28.25;57.83;154765.31;1718957;83;20179;-74